sensor_id;sensor_type;location;lat;lon;timestamp;temperature;humidity
45807;DHT22;31507;51.494;7.518;2023-04-29T00:01:11;10.90;99.90
45807;DHT22;31507;51.494;7.518;2023-04-29T00:03:36;10.90;99.90
45807;DHT22;31507;51.494;7.518;2023-04-29T00:06:02;10.80;99.90
45807;DHT22;31507;51.494;7.518;2023-04-29T00:08:28;10.80;99.90
45807;DHT22;31507;51.494;7.518;2023-04-29T00:10:53;10.70;99.90
45807;DHT22;31507;51.494;7.518;2023-04-29T00:13:19;10.70;99.90
45807;DHT22;31507;51.494;7.518;2023-04-29T00:15:45;10.70;99.90
45807;DHT22;31507;51.494;7.518;2023-04-29T00:18:11;10.60;99.90
45807;DHT22;31507;51.494;7.518;2023-04-29T00:20:38;10.60;99.90
45807;DHT22;31507;51.494;7.518;2023-04-29T00:23:04;10.60;99.90
45807;DHT22;31507;51.494;7.518;2023-04-29T00:25:30;10.60;99.90
45807;DHT22;31507;51.494;7.518;2023-04-29T00:27:56;10.50;99.90
45807;DHT22;31507;51.494;7.518;2023-04-29T00:30:29;10.50;99.90
45807;DHT22;31507;51.494;7.518;2023-04-29T00:32:55;10.50;99.90
45807;DHT22;31507;51.494;7.518;2023-04-29T00:35:21;10.50;99.90
45807;DHT22;31507;51.494;7.518;2023-04-29T00:37:46;10.50;99.90
45807;DHT22;31507;51.494;7.518;2023-04-29T00:40:12;10.50;99.90
45807;DHT22;31507;51.494;7.518;2023-04-29T00:42:41;10.50;99.90
45807;DHT22;31507;51.494;7.518;2023-04-29T00:45:08;10.50;99.90
45807;DHT22;31507;51.494;7.518;2023-04-29T00:47:34;10.50;99.90
45807;DHT22;31507;51.494;7.518;2023-04-29T00:50:00;10.50;99.90
45807;DHT22;31507;51.494;7.518;2023-04-29T00:52:29;10.50;99.90
45807;DHT22;31507;51.494;7.518;2023-04-29T00:54:56;10.50;99.90
45807;DHT22;31507;51.494;7.518;2023-04-29T00:57:22;10.40;99.90
45807;DHT22;31507;51.494;7.518;2023-04-29T00:59:48;10.50;99.90
45807;DHT22;31507;51.494;7.518;2023-04-29T01:02:14;10.40;99.90
45807;DHT22;31507;51.494;7.518;2023-04-29T01:04:41;10.40;99.90
45807;DHT22;31507;51.494;7.518;2023-04-29T01:07:17;10.40;99.90
45807;DHT22;31507;51.494;7.518;2023-04-29T01:12:56;10.30;99.90
45807;DHT22;31507;51.494;7.518;2023-04-29T01:15:32;10.30;99.90
45807;DHT22;31507;51.494;7.518;2023-04-29T01:18:21;10.30;99.90
45807;DHT22;31507;51.494;7.518;2023-04-29T01:20:49;10.20;99.90
45807;DHT22;31507;51.494;7.518;2023-04-29T01:23:15;10.20;99.90
45807;DHT22;31507;51.494;7.518;2023-04-29T01:25:41;10.20;99.90
45807;DHT22;31507;51.494;7.518;2023-04-29T01:31:18;10.10;99.90
45807;DHT22;31507;51.494;7.518;2023-04-29T01:36:36;10.10;99.90
45807;DHT22;31507;51.494;7.518;2023-04-29T01:39:06;10.10;99.90
45807;DHT22;31507;51.494;7.518;2023-04-29T01:44:35;10.00;99.90
45807;DHT22;31507;51.494;7.518;2023-04-29T01:47:02;10.00;99.90
45807;DHT22;31507;51.494;7.518;2023-04-29T01:49:29;10.00;99.90
45807;DHT22;31507;51.494;7.518;2023-04-29T01:51:55;10.00;99.90
45807;DHT22;31507;51.494;7.518;2023-04-29T01:54:21;9.90;99.90
45807;DHT22;31507;51.494;7.518;2023-04-29T01:56:47;10.00;99.90
45807;DHT22;31507;51.494;7.518;2023-04-29T01:59:13;9.90;99.90
45807;DHT22;31507;51.494;7.518;2023-04-29T02:01:38;9.90;99.90
45807;DHT22;31507;51.494;7.518;2023-04-29T02:04:04;9.90;99.90
45807;DHT22;31507;51.494;7.518;2023-04-29T02:06:29;9.90;99.90
45807;DHT22;31507;51.494;7.518;2023-04-29T02:08:57;9.80;99.90
45807;DHT22;31507;51.494;7.518;2023-04-29T02:11:22;9.90;99.90
45807;DHT22;31507;51.494;7.518;2023-04-29T02:13:48;9.80;99.90
45807;DHT22;31507;51.494;7.518;2023-04-29T02:16:15;9.90;99.90
45807;DHT22;31507;51.494;7.518;2023-04-29T02:18:41;9.80;99.90
45807;DHT22;31507;51.494;7.518;2023-04-29T02:21:07;9.80;99.90
45807;DHT22;31507;51.494;7.518;2023-04-29T02:23:33;9.80;99.90
45807;DHT22;31507;51.494;7.518;2023-04-29T02:25:59;9.70;99.90
45807;DHT22;31507;51.494;7.518;2023-04-29T02:28:26;9.70;99.90
45807;DHT22;31507;51.494;7.518;2023-04-29T02:30:51;9.60;99.90
45807;DHT22;31507;51.494;7.518;2023-04-29T02:33:17;9.50;99.90
45807;DHT22;31507;51.494;7.518;2023-04-29T02:35:43;9.40;99.90
45807;DHT22;31507;51.494;7.518;2023-04-29T02:38:09;9.40;99.90
45807;DHT22;31507;51.494;7.518;2023-04-29T02:40:45;9.30;99.90
45807;DHT22;31507;51.494;7.518;2023-04-29T02:43:11;9.30;99.90
45807;DHT22;31507;51.494;7.518;2023-04-29T02:45:38;9.30;99.90
45807;DHT22;31507;51.494;7.518;2023-04-29T02:48:05;9.30;99.90
45807;DHT22;31507;51.494;7.518;2023-04-29T02:50:31;9.30;99.90
45807;DHT22;31507;51.494;7.518;2023-04-29T02:52:57;9.30;99.90
45807;DHT22;31507;51.494;7.518;2023-04-29T02:55:23;9.30;99.90
45807;DHT22;31507;51.494;7.518;2023-04-29T02:57:49;9.30;99.90
45807;DHT22;31507;51.494;7.518;2023-04-29T03:00:14;9.30;99.90
45807;DHT22;31507;51.494;7.518;2023-04-29T03:02:40;9.20;99.90
45807;DHT22;31507;51.494;7.518;2023-04-29T03:05:06;9.20;99.90
45807;DHT22;31507;51.494;7.518;2023-04-29T03:07:32;9.20;99.90
45807;DHT22;31507;51.494;7.518;2023-04-29T03:09:57;9.20;99.90
45807;DHT22;31507;51.494;7.518;2023-04-29T03:12:23;9.20;99.90
45807;DHT22;31507;51.494;7.518;2023-04-29T03:14:49;9.20;99.90
45807;DHT22;31507;51.494;7.518;2023-04-29T03:17:16;9.10;99.90
45807;DHT22;31507;51.494;7.518;2023-04-29T03:19:41;9.10;99.90
45807;DHT22;31507;51.494;7.518;2023-04-29T03:22:07;9.10;99.90
45807;DHT22;31507;51.494;7.518;2023-04-29T03:24:36;9.10;99.90
45807;DHT22;31507;51.494;7.518;2023-04-29T03:27:01;9.00;99.90
45807;DHT22;31507;51.494;7.518;2023-04-29T03:29:29;9.10;99.90
45807;DHT22;31507;51.494;7.518;2023-04-29T03:31:55;9.10;99.90
45807;DHT22;31507;51.494;7.518;2023-04-29T03:34:21;9.10;99.90
45807;DHT22;31507;51.494;7.518;2023-04-29T03:36:47;9.10;99.90
45807;DHT22;31507;51.494;7.518;2023-04-29T03:39:12;9.10;99.90
45807;DHT22;31507;51.494;7.518;2023-04-29T03:41:38;9.00;99.90
45807;DHT22;31507;51.494;7.518;2023-04-29T03:44:04;9.00;99.90
45807;DHT22;31507;51.494;7.518;2023-04-29T03:46:30;9.00;99.90
45807;DHT22;31507;51.494;7.518;2023-04-29T03:48:56;9.00;99.90
45807;DHT22;31507;51.494;7.518;2023-04-29T03:51:23;9.00;99.90
45807;DHT22;31507;51.494;7.518;2023-04-29T03:53:49;8.90;99.90
45807;DHT22;31507;51.494;7.518;2023-04-29T03:56:15;8.90;99.90
45807;DHT22;31507;51.494;7.518;2023-04-29T03:58:41;8.80;99.90
45807;DHT22;31507;51.494;7.518;2023-04-29T04:01:06;8.80;99.90
45807;DHT22;31507;51.494;7.518;2023-04-29T04:03:32;8.90;99.90
45807;DHT22;31507;51.494;7.518;2023-04-29T04:05:58;8.80;99.90
45807;DHT22;31507;51.494;7.518;2023-04-29T04:08:23;8.90;99.90
45807;DHT22;31507;51.494;7.518;2023-04-29T04:10:49;8.80;99.90
45807;DHT22;31507;51.494;7.518;2023-04-29T04:13:15;8.80;99.90
45807;DHT22;31507;51.494;7.518;2023-04-29T04:15:40;8.80;99.90
45807;DHT22;31507;51.494;7.518;2023-04-29T04:18:07;8.80;99.90
45807;DHT22;31507;51.494;7.518;2023-04-29T04:20:35;8.80;99.90
45807;DHT22;31507;51.494;7.518;2023-04-29T04:23:01;8.80;99.90
45807;DHT22;31507;51.494;7.518;2023-04-29T04:25:26;8.90;99.90
45807;DHT22;31507;51.494;7.518;2023-04-29T04:27:53;8.90;99.90
45807;DHT22;31507;51.494;7.518;2023-04-29T04:30:18;8.80;99.90
45807;DHT22;31507;51.494;7.518;2023-04-29T04:32:44;8.90;99.90
45807;DHT22;31507;51.494;7.518;2023-04-29T04:35:10;8.80;99.90
45807;DHT22;31507;51.494;7.518;2023-04-29T04:37:37;8.80;99.90
45807;DHT22;31507;51.494;7.518;2023-04-29T04:40:03;8.80;99.90
45807;DHT22;31507;51.494;7.518;2023-04-29T04:42:29;8.80;99.90
45807;DHT22;31507;51.494;7.518;2023-04-29T04:44:55;8.80;99.90
45807;DHT22;31507;51.494;7.518;2023-04-29T04:47:21;8.80;99.90
45807;DHT22;31507;51.494;7.518;2023-04-29T04:49:47;8.80;99.90
45807;DHT22;31507;51.494;7.518;2023-04-29T04:52:14;8.80;99.90
45807;DHT22;31507;51.494;7.518;2023-04-29T04:54:40;8.80;99.90
45807;DHT22;31507;51.494;7.518;2023-04-29T04:57:06;8.80;99.90
45807;DHT22;31507;51.494;7.518;2023-04-29T04:59:32;8.80;99.90
45807;DHT22;31507;51.494;7.518;2023-04-29T05:01:58;8.80;99.90
45807;DHT22;31507;51.494;7.518;2023-04-29T05:04:23;8.80;99.90
45807;DHT22;31507;51.494;7.518;2023-04-29T05:06:51;8.80;99.90
45807;DHT22;31507;51.494;7.518;2023-04-29T05:09:17;8.80;99.90
45807;DHT22;31507;51.494;7.518;2023-04-29T05:11:43;8.80;99.90
45807;DHT22;31507;51.494;7.518;2023-04-29T05:14:09;8.80;99.90
45807;DHT22;31507;51.494;7.518;2023-04-29T05:16:34;8.90;99.90
45807;DHT22;31507;51.494;7.518;2023-04-29T05:19:00;8.80;99.90
45807;DHT22;31507;51.494;7.518;2023-04-29T05:21:26;8.80;99.90
45807;DHT22;31507;51.494;7.518;2023-04-29T05:23:51;8.80;99.90
45807;DHT22;31507;51.494;7.518;2023-04-29T05:26:17;8.90;99.90
45807;DHT22;31507;51.494;7.518;2023-04-29T05:28:42;9.00;99.90
45807;DHT22;31507;51.494;7.518;2023-04-29T05:31:08;9.00;99.90
45807;DHT22;31507;51.494;7.518;2023-04-29T05:33:34;9.10;99.90
45807;DHT22;31507;51.494;7.518;2023-04-29T05:35:59;9.10;99.90
45807;DHT22;31507;51.494;7.518;2023-04-29T05:38:25;9.10;99.90
45807;DHT22;31507;51.494;7.518;2023-04-29T05:40:54;9.10;99.90
45807;DHT22;31507;51.494;7.518;2023-04-29T05:43:20;9.10;99.90
45807;DHT22;31507;51.494;7.518;2023-04-29T05:45:49;9.10;99.90
45807;DHT22;31507;51.494;7.518;2023-04-29T05:48:15;9.10;99.90
45807;DHT22;31507;51.494;7.518;2023-04-29T05:50:41;9.20;99.90
45807;DHT22;31507;51.494;7.518;2023-04-29T05:53:07;9.20;99.90
45807;DHT22;31507;51.494;7.518;2023-04-29T05:55:33;9.20;99.90
45807;DHT22;31507;51.494;7.518;2023-04-29T05:57:58;9.20;99.90
45807;DHT22;31507;51.494;7.518;2023-04-29T06:00:24;9.30;99.90
45807;DHT22;31507;51.494;7.518;2023-04-29T06:02:49;9.30;99.90
45807;DHT22;31507;51.494;7.518;2023-04-29T06:05:15;9.40;99.90
45807;DHT22;31507;51.494;7.518;2023-04-29T06:07:41;9.40;99.90
45807;DHT22;31507;51.494;7.518;2023-04-29T06:10:08;9.40;99.90
45807;DHT22;31507;51.494;7.518;2023-04-29T06:12:33;9.40;99.90
45807;DHT22;31507;51.494;7.518;2023-04-29T06:14:59;9.40;99.90
45807;DHT22;31507;51.494;7.518;2023-04-29T06:17:25;9.40;99.90
45807;DHT22;31507;51.494;7.518;2023-04-29T06:19:56;9.40;99.90
45807;DHT22;31507;51.494;7.518;2023-04-29T06:22:21;9.50;99.90
45807;DHT22;31507;51.494;7.518;2023-04-29T06:24:47;9.50;99.90
45807;DHT22;31507;51.494;7.518;2023-04-29T06:27:16;9.50;99.90
45807;DHT22;31507;51.494;7.518;2023-04-29T06:29:42;9.50;99.90
45807;DHT22;31507;51.494;7.518;2023-04-29T06:32:08;9.50;99.90
45807;DHT22;31507;51.494;7.518;2023-04-29T06:34:33;9.40;99.90
45807;DHT22;31507;51.494;7.518;2023-04-29T06:36:59;9.50;99.90
45807;DHT22;31507;51.494;7.518;2023-04-29T06:39:25;9.50;99.90
45807;DHT22;31507;51.494;7.518;2023-04-29T06:41:50;9.40;99.90
45807;DHT22;31507;51.494;7.518;2023-04-29T06:44:16;9.40;99.90
45807;DHT22;31507;51.494;7.518;2023-04-29T06:46:43;9.40;99.90
45807;DHT22;31507;51.494;7.518;2023-04-29T06:49:09;9.40;99.90
45807;DHT22;31507;51.494;7.518;2023-04-29T06:51:36;9.40;99.90
45807;DHT22;31507;51.494;7.518;2023-04-29T06:54:02;9.30;99.90
45807;DHT22;31507;51.494;7.518;2023-04-29T06:56:28;9.30;99.90
45807;DHT22;31507;51.494;7.518;2023-04-29T06:58:54;9.30;99.90
45807;DHT22;31507;51.494;7.518;2023-04-29T07:01:19;9.20;99.90
45807;DHT22;31507;51.494;7.518;2023-04-29T07:03:45;9.20;99.90
45807;DHT22;31507;51.494;7.518;2023-04-29T07:06:11;9.10;99.90
45807;DHT22;31507;51.494;7.518;2023-04-29T07:08:37;9.10;99.90
45807;DHT22;31507;51.494;7.518;2023-04-29T07:11:02;9.10;99.90
45807;DHT22;31507;51.494;7.518;2023-04-29T07:13:28;9.00;99.90
45807;DHT22;31507;51.494;7.518;2023-04-29T07:15:54;9.00;99.90
45807;DHT22;31507;51.494;7.518;2023-04-29T07:18:20;8.90;99.90
45807;DHT22;31507;51.494;7.518;2023-04-29T07:20:45;8.90;99.90
45807;DHT22;31507;51.494;7.518;2023-04-29T07:23:12;8.90;99.90
45807;DHT22;31507;51.494;7.518;2023-04-29T07:25:39;8.90;99.90
45807;DHT22;31507;51.494;7.518;2023-04-29T07:28:05;9.00;99.90
45807;DHT22;31507;51.494;7.518;2023-04-29T07:30:31;9.00;99.90
45807;DHT22;31507;51.494;7.518;2023-04-29T07:32:56;9.00;99.90
45807;DHT22;31507;51.494;7.518;2023-04-29T07:35:22;9.00;99.90
45807;DHT22;31507;51.494;7.518;2023-04-29T07:37:48;9.00;99.90
45807;DHT22;31507;51.494;7.518;2023-04-29T07:40:13;9.00;99.90
45807;DHT22;31507;51.494;7.518;2023-04-29T07:42:39;8.90;99.90
45807;DHT22;31507;51.494;7.518;2023-04-29T07:45:05;8.90;99.90
45807;DHT22;31507;51.494;7.518;2023-04-29T07:47:31;8.80;99.90
45807;DHT22;31507;51.494;7.518;2023-04-29T07:49:56;8.80;99.90
45807;DHT22;31507;51.494;7.518;2023-04-29T07:52:24;8.80;99.90
45807;DHT22;31507;51.494;7.518;2023-04-29T07:54:53;8.80;99.90
45807;DHT22;31507;51.494;7.518;2023-04-29T07:57:21;8.70;99.90
45807;DHT22;31507;51.494;7.518;2023-04-29T07:59:51;8.80;99.90
45807;DHT22;31507;51.494;7.518;2023-04-29T08:02:17;8.70;99.90
45807;DHT22;31507;51.494;7.518;2023-04-29T08:04:43;8.70;99.90
45807;DHT22;31507;51.494;7.518;2023-04-29T08:07:11;8.70;99.90
45807;DHT22;31507;51.494;7.518;2023-04-29T08:09:37;8.70;99.90
45807;DHT22;31507;51.494;7.518;2023-04-29T08:12:03;8.70;99.90
45807;DHT22;31507;51.494;7.518;2023-04-29T08:14:29;8.70;99.90
45807;DHT22;31507;51.494;7.518;2023-04-29T08:16:54;8.80;99.90
45807;DHT22;31507;51.494;7.518;2023-04-29T08:19:20;8.70;99.90
45807;DHT22;31507;51.494;7.518;2023-04-29T08:21:46;8.70;99.90
45807;DHT22;31507;51.494;7.518;2023-04-29T08:24:12;8.70;99.90
45807;DHT22;31507;51.494;7.518;2023-04-29T08:26:41;8.80;99.90
45807;DHT22;31507;51.494;7.518;2023-04-29T08:29:06;8.80;99.90
45807;DHT22;31507;51.494;7.518;2023-04-29T08:31:32;8.80;99.90
45807;DHT22;31507;51.494;7.518;2023-04-29T08:33:59;8.90;99.90
45807;DHT22;31507;51.494;7.518;2023-04-29T08:36:25;8.90;99.90
45807;DHT22;31507;51.494;7.518;2023-04-29T08:38:54;8.90;99.90
45807;DHT22;31507;51.494;7.518;2023-04-29T08:41:19;9.00;99.90
45807;DHT22;31507;51.494;7.518;2023-04-29T08:43:45;9.00;99.90
45807;DHT22;31507;51.494;7.518;2023-04-29T08:46:11;9.00;99.90
45807;DHT22;31507;51.494;7.518;2023-04-29T08:48:37;9.00;99.90
45807;DHT22;31507;51.494;7.518;2023-04-29T08:51:07;9.00;99.90
45807;DHT22;31507;51.494;7.518;2023-04-29T08:53:36;9.00;99.90
45807;DHT22;31507;51.494;7.518;2023-04-29T08:56:07;9.00;99.90
45807;DHT22;31507;51.494;7.518;2023-04-29T08:58:33;9.10;99.90
45807;DHT22;31507;51.494;7.518;2023-04-29T09:01:00;9.20;99.90
45807;DHT22;31507;51.494;7.518;2023-04-29T09:03:36;9.20;99.90
45807;DHT22;31507;51.494;7.518;2023-04-29T09:06:02;9.20;99.90
45807;DHT22;31507;51.494;7.518;2023-04-29T09:08:29;9.20;99.90
45807;DHT22;31507;51.494;7.518;2023-04-29T09:10:57;9.20;99.90
45807;DHT22;31507;51.494;7.518;2023-04-29T09:13:24;9.30;99.90
45807;DHT22;31507;51.494;7.518;2023-04-29T09:15:50;9.30;99.90
45807;DHT22;31507;51.494;7.518;2023-04-29T09:21:14;9.40;99.90
45807;DHT22;31507;51.494;7.518;2023-04-29T09:23:40;9.40;99.90
45807;DHT22;31507;51.494;7.518;2023-04-29T09:26:07;9.40;99.90
45807;DHT22;31507;51.494;7.518;2023-04-29T09:28:32;9.40;99.90
45807;DHT22;31507;51.494;7.518;2023-04-29T09:30:58;9.50;99.90
45807;DHT22;31507;51.494;7.518;2023-04-29T09:33:24;9.60;99.90
45807;DHT22;31507;51.494;7.518;2023-04-29T09:35:53;9.60;99.90
45807;DHT22;31507;51.494;7.518;2023-04-29T09:38:18;9.70;99.90
45807;DHT22;31507;51.494;7.518;2023-04-29T09:40:45;9.70;99.90
45807;DHT22;31507;51.494;7.518;2023-04-29T09:43:13;9.70;99.90
45807;DHT22;31507;51.494;7.518;2023-04-29T09:45:46;9.70;99.90
45807;DHT22;31507;51.494;7.518;2023-04-29T09:48:12;9.80;99.90
45807;DHT22;31507;51.494;7.518;2023-04-29T09:50:39;9.80;99.90
45807;DHT22;31507;51.494;7.518;2023-04-29T09:53:07;10.10;99.90
45807;DHT22;31507;51.494;7.518;2023-04-29T09:58:29;10.90;99.90
45807;DHT22;31507;51.494;7.518;2023-04-29T10:00:58;11.30;99.90
45807;DHT22;31507;51.494;7.518;2023-04-29T10:03:28;11.40;99.90
45807;DHT22;31507;51.494;7.518;2023-04-29T10:05:57;11.30;99.90
45807;DHT22;31507;51.494;7.518;2023-04-29T10:08:23;11.40;99.90
45807;DHT22;31507;51.494;7.518;2023-04-29T10:10:50;11.40;99.90
45807;DHT22;31507;51.494;7.518;2023-04-29T10:13:25;11.40;99.90
45807;DHT22;31507;51.494;7.518;2023-04-29T10:16:16;11.50;99.90
45807;DHT22;31507;51.494;7.518;2023-04-29T10:18:48;11.60;99.90
45807;DHT22;31507;51.494;7.518;2023-04-29T10:21:17;11.70;99.90
45807;DHT22;31507;51.494;7.518;2023-04-29T10:23:43;11.70;99.90
45807;DHT22;31507;51.494;7.518;2023-04-29T10:26:11;11.80;99.90
45807;DHT22;31507;51.494;7.518;2023-04-29T10:28:38;11.90;99.90
45807;DHT22;31507;51.494;7.518;2023-04-29T10:31:05;12.10;99.90
45807;DHT22;31507;51.494;7.518;2023-04-29T10:33:34;12.30;99.90
45807;DHT22;31507;51.494;7.518;2023-04-29T10:36:00;12.50;99.90
45807;DHT22;31507;51.494;7.518;2023-04-29T10:38:56;12.50;99.90
45807;DHT22;31507;51.494;7.518;2023-04-29T10:41:26;12.40;99.90
45807;DHT22;31507;51.494;7.518;2023-04-29T10:43:53;12.40;99.90
45807;DHT22;31507;51.494;7.518;2023-04-29T10:46:23;12.50;99.90
45807;DHT22;31507;51.494;7.518;2023-04-29T10:49:00;12.70;99.90
45807;DHT22;31507;51.494;7.518;2023-04-29T10:51:38;12.90;99.90
45807;DHT22;31507;51.494;7.518;2023-04-29T10:59:12;13.00;99.90
45807;DHT22;31507;51.494;7.518;2023-04-29T11:01:49;12.90;99.90
45807;DHT22;31507;51.494;7.518;2023-04-29T11:04:16;12.90;99.90
45807;DHT22;31507;51.494;7.518;2023-04-29T11:06:53;13.00;99.90
45807;DHT22;31507;51.494;7.518;2023-04-29T11:09:25;12.80;99.90
45807;DHT22;31507;51.494;7.518;2023-04-29T11:14:31;13.10;99.90
45807;DHT22;31507;51.494;7.518;2023-04-29T11:16:59;13.00;99.90
45807;DHT22;31507;51.494;7.518;2023-04-29T11:19:30;13.10;99.90
45807;DHT22;31507;51.494;7.518;2023-04-29T11:25:03;13.70;99.90
45807;DHT22;31507;51.494;7.518;2023-04-29T11:27:39;13.90;99.90
45807;DHT22;31507;51.494;7.518;2023-04-29T11:30:07;14.10;99.90
45807;DHT22;31507;51.494;7.518;2023-04-29T11:32:37;14.20;99.90
45807;DHT22;31507;51.494;7.518;2023-04-29T11:37:34;14.10;99.90
45807;DHT22;31507;51.494;7.518;2023-04-29T11:40:00;14.10;99.90
45807;DHT22;31507;51.494;7.518;2023-04-29T11:42:26;14.10;99.90
45807;DHT22;31507;51.494;7.518;2023-04-29T11:44:53;14.10;99.90
45807;DHT22;31507;51.494;7.518;2023-04-29T11:47:28;13.90;99.90
45807;DHT22;31507;51.494;7.518;2023-04-29T11:50:05;13.80;99.90
45807;DHT22;31507;51.494;7.518;2023-04-29T11:52:34;13.90;99.90
45807;DHT22;31507;51.494;7.518;2023-04-29T11:55:02;13.80;99.90
45807;DHT22;31507;51.494;7.518;2023-04-29T11:57:28;13.90;99.90
45807;DHT22;31507;51.494;7.518;2023-04-29T11:59:54;14.10;99.90
45807;DHT22;31507;51.494;7.518;2023-04-29T12:02:31;14.30;99.90
45807;DHT22;31507;51.494;7.518;2023-04-29T12:05:07;14.40;99.90
45807;DHT22;31507;51.494;7.518;2023-04-29T12:07:33;14.20;99.90
45807;DHT22;31507;51.494;7.518;2023-04-29T12:09:59;14.00;99.90
45807;DHT22;31507;51.494;7.518;2023-04-29T12:12:25;13.80;99.90
45807;DHT22;31507;51.494;7.518;2023-04-29T12:14:52;13.50;99.90
45807;DHT22;31507;51.494;7.518;2023-04-29T12:17:19;13.20;99.90
45807;DHT22;31507;51.494;7.518;2023-04-29T12:19:45;13.00;99.90
45807;DHT22;31507;51.494;7.518;2023-04-29T12:22:11;12.90;99.90
45807;DHT22;31507;51.494;7.518;2023-04-29T12:24:38;12.80;99.90
45807;DHT22;31507;51.494;7.518;2023-04-29T12:27:07;12.90;99.90
45807;DHT22;31507;51.494;7.518;2023-04-29T12:29:35;13.00;99.90
45807;DHT22;31507;51.494;7.518;2023-04-29T12:32:00;12.90;99.90
45807;DHT22;31507;51.494;7.518;2023-04-29T12:34:27;12.90;99.90
45807;DHT22;31507;51.494;7.518;2023-04-29T12:36:57;12.90;99.90
45807;DHT22;31507;51.494;7.518;2023-04-29T12:39:26;12.90;99.90
45807;DHT22;31507;51.494;7.518;2023-04-29T12:41:57;12.90;99.90
45807;DHT22;31507;51.494;7.518;2023-04-29T12:44:24;12.80;99.90
45807;DHT22;31507;51.494;7.518;2023-04-29T12:46:50;12.80;99.90
45807;DHT22;31507;51.494;7.518;2023-04-29T12:49:17;12.80;99.90
45807;DHT22;31507;51.494;7.518;2023-04-29T12:51:44;12.90;99.90
45807;DHT22;31507;51.494;7.518;2023-04-29T12:54:10;13.00;99.90
45807;DHT22;31507;51.494;7.518;2023-04-29T12:56:37;13.10;99.90
45807;DHT22;31507;51.494;7.518;2023-04-29T12:59:09;13.10;99.90
45807;DHT22;31507;51.494;7.518;2023-04-29T13:01:35;13.20;99.90
45807;DHT22;31507;51.494;7.518;2023-04-29T13:04:01;13.30;99.90
45807;DHT22;31507;51.494;7.518;2023-04-29T13:06:27;13.40;99.90
45807;DHT22;31507;51.494;7.518;2023-04-29T13:08:52;13.60;99.90
45807;DHT22;31507;51.494;7.518;2023-04-29T13:11:19;13.70;99.90
45807;DHT22;31507;51.494;7.518;2023-04-29T13:13:45;13.90;99.90
45807;DHT22;31507;51.494;7.518;2023-04-29T13:16:10;14.00;99.90
45807;DHT22;31507;51.494;7.518;2023-04-29T13:18:36;14.10;99.90
45807;DHT22;31507;51.494;7.518;2023-04-29T13:21:02;14.00;99.90
45807;DHT22;31507;51.494;7.518;2023-04-29T13:23:27;14.10;99.90
45807;DHT22;31507;51.494;7.518;2023-04-29T13:25:53;14.30;99.90
45807;DHT22;31507;51.494;7.518;2023-04-29T13:28:18;14.20;99.90
45807;DHT22;31507;51.494;7.518;2023-04-29T13:30:44;14.10;99.90
45807;DHT22;31507;51.494;7.518;2023-04-29T13:33:10;14.00;99.90
45807;DHT22;31507;51.494;7.518;2023-04-29T13:35:35;14.00;99.90
45807;DHT22;31507;51.494;7.518;2023-04-29T13:38:02;14.10;99.90
45807;DHT22;31507;51.494;7.518;2023-04-29T13:40:28;14.00;99.90
45807;DHT22;31507;51.494;7.518;2023-04-29T13:42:54;14.00;99.90
45807;DHT22;31507;51.494;7.518;2023-04-29T13:45:20;14.10;99.90
45807;DHT22;31507;51.494;7.518;2023-04-29T13:47:45;14.10;99.90
45807;DHT22;31507;51.494;7.518;2023-04-29T13:50:11;14.30;99.90
45807;DHT22;31507;51.494;7.518;2023-04-29T13:52:37;14.40;99.90
45807;DHT22;31507;51.494;7.518;2023-04-29T13:55:03;14.20;99.90
45807;DHT22;31507;51.494;7.518;2023-04-29T13:57:29;14.20;99.90
45807;DHT22;31507;51.494;7.518;2023-04-29T13:59:55;14.20;99.90
45807;DHT22;31507;51.494;7.518;2023-04-29T14:02:21;14.20;99.90
45807;DHT22;31507;51.494;7.518;2023-04-29T14:04:46;14.10;99.90
45807;DHT22;31507;51.494;7.518;2023-04-29T14:07:14;14.00;99.90
45807;DHT22;31507;51.494;7.518;2023-04-29T14:09:40;14.00;99.90
45807;DHT22;31507;51.494;7.518;2023-04-29T14:12:06;13.90;99.90
45807;DHT22;31507;51.494;7.518;2023-04-29T14:14:31;13.80;99.90
45807;DHT22;31507;51.494;7.518;2023-04-29T14:16:57;13.80;99.90
45807;DHT22;31507;51.494;7.518;2023-04-29T14:19:23;13.70;99.90
45807;DHT22;31507;51.494;7.518;2023-04-29T14:21:48;13.60;99.90
45807;DHT22;31507;51.494;7.518;2023-04-29T14:24:14;13.50;99.90
45807;DHT22;31507;51.494;7.518;2023-04-29T14:26:40;13.30;99.90
45807;DHT22;31507;51.494;7.518;2023-04-29T14:29:06;13.20;99.90
45807;DHT22;31507;51.494;7.518;2023-04-29T14:31:35;13.00;99.90
45807;DHT22;31507;51.494;7.518;2023-04-29T14:34:04;12.90;99.90
45807;DHT22;31507;51.494;7.518;2023-04-29T14:36:30;12.90;99.90
45807;DHT22;31507;51.494;7.518;2023-04-29T14:38:57;12.80;99.90
45807;DHT22;31507;51.494;7.518;2023-04-29T14:41:23;12.80;99.90
45807;DHT22;31507;51.494;7.518;2023-04-29T14:43:49;12.70;99.90
45807;DHT22;31507;51.494;7.518;2023-04-29T14:46:15;12.70;99.90
45807;DHT22;31507;51.494;7.518;2023-04-29T14:48:41;12.70;99.90
45807;DHT22;31507;51.494;7.518;2023-04-29T14:51:07;12.70;99.90
45807;DHT22;31507;51.494;7.518;2023-04-29T14:53:32;12.80;99.90
45807;DHT22;31507;51.494;7.518;2023-04-29T14:55:58;12.90;99.90
45807;DHT22;31507;51.494;7.518;2023-04-29T14:58:24;13.00;99.90
45807;DHT22;31507;51.494;7.518;2023-04-29T15:00:50;13.10;99.90
45807;DHT22;31507;51.494;7.518;2023-04-29T15:03:16;13.20;99.90
45807;DHT22;31507;51.494;7.518;2023-04-29T15:05:42;13.30;99.90
45807;DHT22;31507;51.494;7.518;2023-04-29T15:08:08;13.50;99.90
45807;DHT22;31507;51.494;7.518;2023-04-29T15:10:34;13.60;99.90
45807;DHT22;31507;51.494;7.518;2023-04-29T15:13:00;13.80;99.90
45807;DHT22;31507;51.494;7.518;2023-04-29T15:15:26;14.00;99.90
45807;DHT22;31507;51.494;7.518;2023-04-29T15:17:52;14.10;99.90
45807;DHT22;31507;51.494;7.518;2023-04-29T15:20:18;14.20;99.90
45807;DHT22;31507;51.494;7.518;2023-04-29T15:22:43;14.40;99.90
45807;DHT22;31507;51.494;7.518;2023-04-29T15:25:09;14.50;99.90
45807;DHT22;31507;51.494;7.518;2023-04-29T15:27:36;14.60;99.90
45807;DHT22;31507;51.494;7.518;2023-04-29T15:30:03;14.70;99.90
45807;DHT22;31507;51.494;7.518;2023-04-29T15:32:29;14.80;99.90
45807;DHT22;31507;51.494;7.518;2023-04-29T15:35:01;14.60;99.90
45807;DHT22;31507;51.494;7.518;2023-04-29T15:37:27;14.60;99.90
45807;DHT22;31507;51.494;7.518;2023-04-29T15:39:54;14.60;99.90
45807;DHT22;31507;51.494;7.518;2023-04-29T15:42:19;14.60;99.90
45807;DHT22;31507;51.494;7.518;2023-04-29T15:44:45;14.70;99.90
45807;DHT22;31507;51.494;7.518;2023-04-29T15:47:11;14.70;99.90
45807;DHT22;31507;51.494;7.518;2023-04-29T15:49:37;14.80;99.90
45807;DHT22;31507;51.494;7.518;2023-04-29T15:52:03;14.70;99.90
45807;DHT22;31507;51.494;7.518;2023-04-29T15:54:28;14.60;99.90
45807;DHT22;31507;51.494;7.518;2023-04-29T15:56:55;14.50;99.90
45807;DHT22;31507;51.494;7.518;2023-04-29T15:59:20;14.40;99.90
45807;DHT22;31507;51.494;7.518;2023-04-29T16:01:46;14.20;99.90
45807;DHT22;31507;51.494;7.518;2023-04-29T16:04:12;14.10;99.90
45807;DHT22;31507;51.494;7.518;2023-04-29T16:06:37;14.00;99.90